Aurora Springs, Missouri
Current Conditions -  °F | °C
As of 4:55 PM on Thursday 23 Oct 2014 (Local Time) from KAIZ Reporting Station
Broken Clouds Broken Clouds  
Wind Chill: 17°   Ceiling: 5000
Heat Index: 17°   Visibility: 10mi
Dew Point: 11°   Wind: 7mph
Humidity: 68%   Direction: 190°S
Pressure: 30.1"   Gusts: NA
Location:  38.333°N, 92.5524°W
Report Text: KAIZ 232155Z AUTO 19006KT 10SM BKN050 17/11 A3010 RMK AO1
Loading
Personal Weather Stations






























Interactive Weather Map
Tropical Storm Tracking
New forecast layout! Learn more

10-Day Weather Forecast

Advertisements
Track Severe Weather on mobile